Current Weather

Mckinney Ntl

Dallas, Texas (KTKI)

Report from: Saturday, February 24, 2024 1:53 PM CST
Current time: Saturday, February 24, 2024 2:31 PM CST

Nearby weather – Weather history – Daily summaries
Weather forecast

Temperature23.3°C (73.9°F)
Dew point1.1°C (34.0°F)
Winds 9 kts (4.6 m/s, 10.4 mph) West (270°)
Visibility10 mi. (16.1 km)
Clouds Sky clear
Altimeter30.11 in.Hg (1020 mB)
Relative humidity23 %
Density altitude845 ft. (258 m)
Sea-level pressure102.0 kPa (1020 mB, 30.12 in.Hg)
Remarks Automated weather observing station with precipitation discriminator
Flight conditions Visual Meteorological Conditions
Raw dataKTKI 241953Z 27009KT 10SM CLR 23/01 A3011 RMK AO2 SLP199 T02330011
An error has occurred. This application may no longer respond until reloaded. Reload 🗙